sensor_id;sensor_type;location;lat;lon;timestamp;temperature;humidity
7720;DHT22;3902;49.474;8.616;2023-10-19T00:01:07;13.50;99.90
7720;DHT22;3902;49.474;8.616;2023-10-19T00:03:34;13.50;99.90
7720;DHT22;3902;49.474;8.616;2023-10-19T00:05:59;13.40;99.90
7720;DHT22;3902;49.474;8.616;2023-10-19T00:08:25;13.50;99.90
7720;DHT22;3902;49.474;8.616;2023-10-19T00:10:53;13.50;99.90
7720;DHT22;3902;49.474;8.616;2023-10-19T00:13:30;13.50;99.90
7720;DHT22;3902;49.474;8.616;2023-10-19T00:15:56;13.60;99.90
7720;DHT22;3902;49.474;8.616;2023-10-19T00:18:23;13.60;99.90
7720;DHT22;3902;49.474;8.616;2023-10-19T00:20:51;13.60;99.90
7720;DHT22;3902;49.474;8.616;2023-10-19T00:23:19;13.70;99.90
7720;DHT22;3902;49.474;8.616;2023-10-19T00:25:50;13.70;99.90
7720;DHT22;3902;49.474;8.616;2023-10-19T00:28:19;13.70;99.90
7720;DHT22;3902;49.474;8.616;2023-10-19T00:30:46;13.70;99.90
7720;DHT22;3902;49.474;8.616;2023-10-19T00:33:15;13.70;99.90
7720;DHT22;3902;49.474;8.616;2023-10-19T00:35:45;13.70;99.90
7720;DHT22;3902;49.474;8.616;2023-10-19T00:38:34;13.70;99.90
7720;DHT22;3902;49.474;8.616;2023-10-19T00:41:00;13.70;99.90
7720;DHT22;3902;49.474;8.616;2023-10-19T00:43:36;13.70;99.90
7720;DHT22;3902;49.474;8.616;2023-10-19T00:46:08;13.80;99.90
7720;DHT22;3902;49.474;8.616;2023-10-19T00:51:17;13.80;99.90
7720;DHT22;3902;49.474;8.616;2023-10-19T00:54:14;13.80;99.90
7720;DHT22;3902;49.474;8.616;2023-10-19T00:56:46;13.80;99.90
7720;DHT22;3902;49.474;8.616;2023-10-19T00:59:19;13.80;99.90
7720;DHT22;3902;49.474;8.616;2023-10-19T01:01:51;13.80;99.90
7720;DHT22;3902;49.474;8.616;2023-10-19T01:04:22;13.90;99.90
7720;DHT22;3902;49.474;8.616;2023-10-19T01:06:49;13.80;99.90
7720;DHT22;3902;49.474;8.616;2023-10-19T01:09:32;13.80;99.90
7720;DHT22;3902;49.474;8.616;2023-10-19T01:12:02;13.80;99.90
7720;DHT22;3902;49.474;8.616;2023-10-19T01:17:38;13.80;99.90
7720;DHT22;3902;49.474;8.616;2023-10-19T01:20:10;13.80;99.90
7720;DHT22;3902;49.474;8.616;2023-10-19T01:22:51;13.80;99.90
7720;DHT22;3902;49.474;8.616;2023-10-19T01:25:45;13.80;99.90
7720;DHT22;3902;49.474;8.616;2023-10-19T01:28:34;13.80;99.90
7720;DHT22;3902;49.474;8.616;2023-10-19T01:31:07;13.80;99.90
7720;DHT22;3902;49.474;8.616;2023-10-19T01:33:33;13.80;99.90
7720;DHT22;3902;49.474;8.616;2023-10-19T01:36:01;13.70;99.90
7720;DHT22;3902;49.474;8.616;2023-10-19T01:38:36;13.70;99.90
7720;DHT22;3902;49.474;8.616;2023-10-19T01:41:03;13.70;99.90
7720;DHT22;3902;49.474;8.616;2023-10-19T01:43:42;13.70;99.90
7720;DHT22;3902;49.474;8.616;2023-10-19T01:46:08;13.80;99.90
7720;DHT22;3902;49.474;8.616;2023-10-19T01:48:38;13.70;99.90
7720;DHT22;3902;49.474;8.616;2023-10-19T01:51:06;13.80;99.90
7720;DHT22;3902;49.474;8.616;2023-10-19T01:53:36;13.80;99.90
7720;DHT22;3902;49.474;8.616;2023-10-19T01:56:02;13.70;99.90
7720;DHT22;3902;49.474;8.616;2023-10-19T01:58:34;13.70;99.90
7720;DHT22;3902;49.474;8.616;2023-10-19T02:01:02;13.80;99.90
7720;DHT22;3902;49.474;8.616;2023-10-19T02:03:32;13.80;99.90
7720;DHT22;3902;49.474;8.616;2023-10-19T02:05:58;13.80;99.90
7720;DHT22;3902;49.474;8.616;2023-10-19T02:08:25;13.80;99.90
7720;DHT22;3902;49.474;8.616;2023-10-19T02:10:52;13.80;99.90
7720;DHT22;3902;49.474;8.616;2023-10-19T02:13:19;13.80;99.90
7720;DHT22;3902;49.474;8.616;2023-10-19T02:15:44;13.80;99.90
7720;DHT22;3902;49.474;8.616;2023-10-19T02:18:10;13.80;99.90
7720;DHT22;3902;49.474;8.616;2023-10-19T02:20:36;13.80;99.90
7720;DHT22;3902;49.474;8.616;2023-10-19T02:23:05;13.80;99.90
7720;DHT22;3902;49.474;8.616;2023-10-19T02:25:32;13.80;99.90
7720;DHT22;3902;49.474;8.616;2023-10-19T02:28:02;13.80;99.90
7720;DHT22;3902;49.474;8.616;2023-10-19T02:30:28;13.80;99.90
7720;DHT22;3902;49.474;8.616;2023-10-19T02:32:56;13.80;99.90
7720;DHT22;3902;49.474;8.616;2023-10-19T02:35:21;13.90;99.90
7720;DHT22;3902;49.474;8.616;2023-10-19T02:37:47;13.90;99.90
7720;DHT22;3902;49.474;8.616;2023-10-19T02:40:13;13.90;99.90
7720;DHT22;3902;49.474;8.616;2023-10-19T02:42:45;13.90;99.90
7720;DHT22;3902;49.474;8.616;2023-10-19T02:45:15;13.80;99.90
7720;DHT22;3902;49.474;8.616;2023-10-19T02:47:44;13.90;99.90
7720;DHT22;3902;49.474;8.616;2023-10-19T02:50:10;13.90;99.90
7720;DHT22;3902;49.474;8.616;2023-10-19T02:52:42;13.90;99.90
7720;DHT22;3902;49.474;8.616;2023-10-19T02:55:09;13.90;99.90
7720;DHT22;3902;49.474;8.616;2023-10-19T02:57:36;13.90;99.90
7720;DHT22;3902;49.474;8.616;2023-10-19T03:00:04;14.00;99.90
7720;DHT22;3902;49.474;8.616;2023-10-19T03:02:36;14.00;99.90
7720;DHT22;3902;49.474;8.616;2023-10-19T03:05:02;14.00;99.90
7720;DHT22;3902;49.474;8.616;2023-10-19T03:07:34;14.00;99.90
7720;DHT22;3902;49.474;8.616;2023-10-19T03:10:00;14.00;99.90
7720;DHT22;3902;49.474;8.616;2023-10-19T03:12:27;13.90;99.90
7720;DHT22;3902;49.474;8.616;2023-10-19T03:14:53;13.80;99.90
7720;DHT22;3902;49.474;8.616;2023-10-19T03:17:18;13.80;99.90
7720;DHT22;3902;49.474;8.616;2023-10-19T03:19:44;13.80;99.90
7720;DHT22;3902;49.474;8.616;2023-10-19T03:22:09;13.80;99.90
7720;DHT22;3902;49.474;8.616;2023-10-19T03:24:36;13.80;99.90
7720;DHT22;3902;49.474;8.616;2023-10-19T03:27:15;13.80;99.90
7720;DHT22;3902;49.474;8.616;2023-10-19T03:29:43;13.90;99.90
7720;DHT22;3902;49.474;8.616;2023-10-19T03:32:13;13.90;99.90
7720;DHT22;3902;49.474;8.616;2023-10-19T03:34:39;13.90;99.90
7720;DHT22;3902;49.474;8.616;2023-10-19T03:37:08;13.90;99.90
7720;DHT22;3902;49.474;8.616;2023-10-19T03:39:39;13.90;99.90
7720;DHT22;3902;49.474;8.616;2023-10-19T03:42:05;13.90;99.90
7720;DHT22;3902;49.474;8.616;2023-10-19T03:44:32;14.00;99.90
7720;DHT22;3902;49.474;8.616;2023-10-19T03:47:18;14.00;99.90
7720;DHT22;3902;49.474;8.616;2023-10-19T03:49:45;13.90;99.90
7720;DHT22;3902;49.474;8.616;2023-10-19T03:52:12;13.90;99.90
7720;DHT22;3902;49.474;8.616;2023-10-19T03:54:39;13.90;99.90
7720;DHT22;3902;49.474;8.616;2023-10-19T03:57:08;13.90;99.90
7720;DHT22;3902;49.474;8.616;2023-10-19T03:59:51;14.00;99.90
7720;DHT22;3902;49.474;8.616;2023-10-19T04:02:24;14.00;99.90
7720;DHT22;3902;49.474;8.616;2023-10-19T04:04:49;14.00;99.90
7720;DHT22;3902;49.474;8.616;2023-10-19T04:07:16;14.00;99.90
7720;DHT22;3902;49.474;8.616;2023-10-19T04:09:55;14.00;99.90
7720;DHT22;3902;49.474;8.616;2023-10-19T04:12:29;14.00;99.90
7720;DHT22;3902;49.474;8.616;2023-10-19T04:15:01;14.00;99.90
7720;DHT22;3902;49.474;8.616;2023-10-19T04:17:35;14.00;99.90
7720;DHT22;3902;49.474;8.616;2023-10-19T04:20:02;14.00;99.90
7720;DHT22;3902;49.474;8.616;2023-10-19T04:22:47;14.00;99.90
7720;DHT22;3902;49.474;8.616;2023-10-19T04:25:14;14.00;99.90
7720;DHT22;3902;49.474;8.616;2023-10-19T04:27:44;14.00;99.90
7720;DHT22;3902;49.474;8.616;2023-10-19T04:30:10;14.10;99.90
7720;DHT22;3902;49.474;8.616;2023-10-19T04:32:49;14.10;99.90
7720;DHT22;3902;49.474;8.616;2023-10-19T04:35:16;14.10;99.90
7720;DHT22;3902;49.474;8.616;2023-10-19T04:37:52;14.10;99.90
7720;DHT22;3902;49.474;8.616;2023-10-19T04:40:18;14.10;99.90
7720;DHT22;3902;49.474;8.616;2023-10-19T04:42:45;14.10;99.90
7720;DHT22;3902;49.474;8.616;2023-10-19T04:45:11;14.10;99.90
7720;DHT22;3902;49.474;8.616;2023-10-19T04:47:38;14.10;99.90
7720;DHT22;3902;49.474;8.616;2023-10-19T04:50:08;14.20;99.90
7720;DHT22;3902;49.474;8.616;2023-10-19T04:52:36;14.10;99.90
7720;DHT22;3902;49.474;8.616;2023-10-19T04:55:01;14.10;99.90
7720;DHT22;3902;49.474;8.616;2023-10-19T04:57:27;14.10;99.90
7720;DHT22;3902;49.474;8.616;2023-10-19T04:59:52;14.20;99.90
7720;DHT22;3902;49.474;8.616;2023-10-19T05:02:18;14.20;99.90
7720;DHT22;3902;49.474;8.616;2023-10-19T05:04:44;14.20;99.90
7720;DHT22;3902;49.474;8.616;2023-10-19T05:07:11;14.20;99.90
7720;DHT22;3902;49.474;8.616;2023-10-19T05:09:45;14.20;99.90
7720;DHT22;3902;49.474;8.616;2023-10-19T05:12:11;14.20;99.90
7720;DHT22;3902;49.474;8.616;2023-10-19T05:14:37;14.20;99.90
7720;DHT22;3902;49.474;8.616;2023-10-19T05:17:03;14.20;99.90
7720;DHT22;3902;49.474;8.616;2023-10-19T05:19:32;14.20;99.90
7720;DHT22;3902;49.474;8.616;2023-10-19T05:22:00;14.20;99.90
7720;DHT22;3902;49.474;8.616;2023-10-19T05:24:26;14.20;99.90
7720;DHT22;3902;49.474;8.616;2023-10-19T05:26:53;14.20;99.90
7720;DHT22;3902;49.474;8.616;2023-10-19T05:29:22;14.20;99.90
7720;DHT22;3902;49.474;8.616;2023-10-19T05:31:50;14.20;99.90
7720;DHT22;3902;49.474;8.616;2023-10-19T05:34:22;14.20;99.90
7720;DHT22;3902;49.474;8.616;2023-10-19T05:36:49;14.30;99.90
7720;DHT22;3902;49.474;8.616;2023-10-19T05:39:15;14.20;99.90
7720;DHT22;3902;49.474;8.616;2023-10-19T05:41:41;14.20;99.90
7720;DHT22;3902;49.474;8.616;2023-10-19T05:44:06;14.30;99.90
7720;DHT22;3902;49.474;8.616;2023-10-19T05:46:32;14.30;99.90
7720;DHT22;3902;49.474;8.616;2023-10-19T05:48:57;14.20;99.90
7720;DHT22;3902;49.474;8.616;2023-10-19T05:51:23;14.20;99.90
7720;DHT22;3902;49.474;8.616;2023-10-19T05:53:49;14.20;99.90
7720;DHT22;3902;49.474;8.616;2023-10-19T05:56:16;14.20;99.90
7720;DHT22;3902;49.474;8.616;2023-10-19T05:58:43;14.20;99.90
7720;DHT22;3902;49.474;8.616;2023-10-19T06:01:08;14.20;99.90
7720;DHT22;3902;49.474;8.616;2023-10-19T06:03:34;14.20;99.90
7720;DHT22;3902;49.474;8.616;2023-10-19T06:05:59;14.20;99.90
7720;DHT22;3902;49.474;8.616;2023-10-19T06:08:25;14.30;99.90
7720;DHT22;3902;49.474;8.616;2023-10-19T06:10:52;14.20;99.90
7720;DHT22;3902;49.474;8.616;2023-10-19T06:13:18;14.20;99.90
7720;DHT22;3902;49.474;8.616;2023-10-19T06:15:44;14.20;99.90
7720;DHT22;3902;49.474;8.616;2023-10-19T06:18:09;14.30;99.90
7720;DHT22;3902;49.474;8.616;2023-10-19T06:20:36;14.30;99.90
7720;DHT22;3902;49.474;8.616;2023-10-19T06:23:02;14.30;99.90
7720;DHT22;3902;49.474;8.616;2023-10-19T06:25:32;14.30;99.90
7720;DHT22;3902;49.474;8.616;2023-10-19T06:27:58;14.30;99.90
7720;DHT22;3902;49.474;8.616;2023-10-19T06:30:25;14.30;99.90
7720;DHT22;3902;49.474;8.616;2023-10-19T06:32:59;14.30;99.90
7720;DHT22;3902;49.474;8.616;2023-10-19T06:35:32;14.30;99.90
7720;DHT22;3902;49.474;8.616;2023-10-19T06:37:58;14.40;99.90
7720;DHT22;3902;49.474;8.616;2023-10-19T06:40:27;14.30;99.90
7720;DHT22;3902;49.474;8.616;2023-10-19T06:42:56;14.40;99.90
7720;DHT22;3902;49.474;8.616;2023-10-19T06:45:22;14.40;99.90
7720;DHT22;3902;49.474;8.616;2023-10-19T06:47:49;14.40;99.90
7720;DHT22;3902;49.474;8.616;2023-10-19T06:50:20;14.50;99.90
7720;DHT22;3902;49.474;8.616;2023-10-19T06:52:47;14.50;99.90
7720;DHT22;3902;49.474;8.616;2023-10-19T06:55:13;14.50;99.90
7720;DHT22;3902;49.474;8.616;2023-10-19T06:57:42;14.50;99.90
7720;DHT22;3902;49.474;8.616;2023-10-19T07:00:12;14.50;99.90
7720;DHT22;3902;49.474;8.616;2023-10-19T07:02:46;14.60;99.90
7720;DHT22;3902;49.474;8.616;2023-10-19T07:05:15;14.60;99.90
7720;DHT22;3902;49.474;8.616;2023-10-19T07:07:45;14.70;99.90
7720;DHT22;3902;49.474;8.616;2023-10-19T07:10:12;14.70;99.90
7720;DHT22;3902;49.474;8.616;2023-10-19T07:12:40;14.70;99.90
7720;DHT22;3902;49.474;8.616;2023-10-19T07:15:07;14.70;99.90
7720;DHT22;3902;49.474;8.616;2023-10-19T07:17:36;14.80;99.90
7720;DHT22;3902;49.474;8.616;2023-10-19T07:20:04;14.80;99.90
7720;DHT22;3902;49.474;8.616;2023-10-19T07:22:34;14.80;99.90
7720;DHT22;3902;49.474;8.616;2023-10-19T07:25:06;14.90;99.90
7720;DHT22;3902;49.474;8.616;2023-10-19T07:27:32;14.90;99.90
7720;DHT22;3902;49.474;8.616;2023-10-19T07:29:59;14.90;99.90
7720;DHT22;3902;49.474;8.616;2023-10-19T07:32:24;14.90;99.90
7720;DHT22;3902;49.474;8.616;2023-10-19T07:34:50;14.90;99.90
7720;DHT22;3902;49.474;8.616;2023-10-19T07:37:15;14.90;99.90
7720;DHT22;3902;49.474;8.616;2023-10-19T07:39:47;14.90;99.90
7720;DHT22;3902;49.474;8.616;2023-10-19T07:42:14;15.00;99.90
7720;DHT22;3902;49.474;8.616;2023-10-19T07:44:40;15.00;99.90
7720;DHT22;3902;49.474;8.616;2023-10-19T07:47:06;15.00;99.90
7720;DHT22;3902;49.474;8.616;2023-10-19T07:49:37;15.00;99.90
7720;DHT22;3902;49.474;8.616;2023-10-19T07:52:06;15.00;99.90
7720;DHT22;3902;49.474;8.616;2023-10-19T07:54:37;15.00;99.90
7720;DHT22;3902;49.474;8.616;2023-10-19T07:57:03;15.10;99.90
7720;DHT22;3902;49.474;8.616;2023-10-19T07:59:32;15.10;99.90
7720;DHT22;3902;49.474;8.616;2023-10-19T08:01:58;15.10;99.90
7720;DHT22;3902;49.474;8.616;2023-10-19T08:04:28;15.10;99.90
7720;DHT22;3902;49.474;8.616;2023-10-19T08:06:53;15.20;99.90
7720;DHT22;3902;49.474;8.616;2023-10-19T08:09:19;15.20;99.90
7720;DHT22;3902;49.474;8.616;2023-10-19T08:11:48;15.20;99.90
7720;DHT22;3902;49.474;8.616;2023-10-19T08:14:14;15.30;99.90
7720;DHT22;3902;49.474;8.616;2023-10-19T08:16:40;15.30;99.90
7720;DHT22;3902;49.474;8.616;2023-10-19T08:19:07;15.40;99.90
7720;DHT22;3902;49.474;8.616;2023-10-19T08:21:33;15.40;99.90
7720;DHT22;3902;49.474;8.616;2023-10-19T08:24:00;15.50;99.90
7720;DHT22;3902;49.474;8.616;2023-10-19T08:26:30;15.50;99.90
7720;DHT22;3902;49.474;8.616;2023-10-19T08:28:56;15.60;99.90
7720;DHT22;3902;49.474;8.616;2023-10-19T08:31:24;15.60;99.90
7720;DHT22;3902;49.474;8.616;2023-10-19T08:33:49;15.70;99.90
7720;DHT22;3902;49.474;8.616;2023-10-19T08:36:20;15.80;99.90
7720;DHT22;3902;49.474;8.616;2023-10-19T08:38:46;15.90;99.90
7720;DHT22;3902;49.474;8.616;2023-10-19T08:41:14;16.00;99.90
7720;DHT22;3902;49.474;8.616;2023-10-19T08:43:40;16.00;99.90
7720;DHT22;3902;49.474;8.616;2023-10-19T08:46:06;16.10;99.90
7720;DHT22;3902;49.474;8.616;2023-10-19T08:48:35;16.10;99.90
7720;DHT22;3902;49.474;8.616;2023-10-19T08:51:09;16.20;99.90
7720;DHT22;3902;49.474;8.616;2023-10-19T08:53:37;16.20;99.90
7720;DHT22;3902;49.474;8.616;2023-10-19T08:56:06;16.30;99.90
7720;DHT22;3902;49.474;8.616;2023-10-19T08:58:33;16.40;99.90
7720;DHT22;3902;49.474;8.616;2023-10-19T09:00:58;16.40;99.90
7720;DHT22;3902;49.474;8.616;2023-10-19T09:03:32;16.50;99.90
7720;DHT22;3902;49.474;8.616;2023-10-19T09:06:00;16.50;99.90
7720;DHT22;3902;49.474;8.616;2023-10-19T09:08:27;16.50;99.90
7720;DHT22;3902;49.474;8.616;2023-10-19T09:11:06;16.60;99.90
7720;DHT22;3902;49.474;8.616;2023-10-19T09:13:52;16.60;99.90
7720;DHT22;3902;49.474;8.616;2023-10-19T09:16:19;16.60;99.90
7720;DHT22;3902;49.474;8.616;2023-10-19T09:18:46;16.70;99.90
7720;DHT22;3902;49.474;8.616;2023-10-19T09:21:15;16.70;99.90
7720;DHT22;3902;49.474;8.616;2023-10-19T09:23:50;16.70;99.90
7720;DHT22;3902;49.474;8.616;2023-10-19T09:26:16;16.70;99.90
7720;DHT22;3902;49.474;8.616;2023-10-19T09:28:46;16.80;99.90
7720;DHT22;3902;49.474;8.616;2023-10-19T09:31:13;16.90;99.90
7720;DHT22;3902;49.474;8.616;2023-10-19T09:33:40;16.90;99.90
7720;DHT22;3902;49.474;8.616;2023-10-19T09:36:07;16.90;99.90
7720;DHT22;3902;49.474;8.616;2023-10-19T09:38:48;17.00;99.90
7720;DHT22;3902;49.474;8.616;2023-10-19T09:41:26;17.00;99.90
7720;DHT22;3902;49.474;8.616;2023-10-19T09:44:05;17.20;99.90
7720;DHT22;3902;49.474;8.616;2023-10-19T09:46:37;17.20;99.90
7720;DHT22;3902;49.474;8.616;2023-10-19T09:49:05;17.30;99.90
7720;DHT22;3902;49.474;8.616;2023-10-19T09:51:32;17.30;99.90
7720;DHT22;3902;49.474;8.616;2023-10-19T09:54:02;17.40;99.90
7720;DHT22;3902;49.474;8.616;2023-10-19T09:56:36;17.50;99.90
7720;DHT22;3902;49.474;8.616;2023-10-19T09:59:13;17.50;99.90
7720;DHT22;3902;49.474;8.616;2023-10-19T10:02:10;17.60;99.90
7720;DHT22;3902;49.474;8.616;2023-10-19T10:04:41;17.80;99.90
7720;DHT22;3902;49.474;8.616;2023-10-19T10:07:08;17.90;99.90
7720;DHT22;3902;49.474;8.616;2023-10-19T10:09:36;17.90;99.90
7720;DHT22;3902;49.474;8.616;2023-10-19T10:12:25;18.10;99.90
7720;DHT22;3902;49.474;8.616;2023-10-19T10:15:04;18.20;99.90
7720;DHT22;3902;49.474;8.616;2023-10-19T10:17:38;18.30;99.90
7720;DHT22;3902;49.474;8.616;2023-10-19T10:22:44;18.40;99.90
7720;DHT22;3902;49.474;8.616;2023-10-19T10:25:27;18.40;99.90
7720;DHT22;3902;49.474;8.616;2023-10-19T10:27:56;18.50;99.90
7720;DHT22;3902;49.474;8.616;2023-10-19T10:30:21;18.40;99.90
7720;DHT22;3902;49.474;8.616;2023-10-19T10:32:49;18.50;99.90
7720;DHT22;3902;49.474;8.616;2023-10-19T10:38:08;18.50;99.90
7720;DHT22;3902;49.474;8.616;2023-10-19T10:43:08;18.50;99.90
7720;DHT22;3902;49.474;8.616;2023-10-19T10:45:34;18.60;99.90
7720;DHT22;3902;49.474;8.616;2023-10-19T10:47:59;18.60;99.90
7720;DHT22;3902;49.474;8.616;2023-10-19T10:50:26;18.60;99.90
7720;DHT22;3902;49.474;8.616;2023-10-19T10:52:53;18.60;99.90
7720;DHT22;3902;49.474;8.616;2023-10-19T10:55:23;18.50;99.90
7720;DHT22;3902;49.474;8.616;2023-10-19T10:57:50;18.40;99.90
7720;DHT22;3902;49.474;8.616;2023-10-19T11:00:16;18.30;99.90
7720;DHT22;3902;49.474;8.616;2023-10-19T11:02:44;18.30;99.90
7720;DHT22;3902;49.474;8.616;2023-10-19T11:05:15;18.30;99.90
7720;DHT22;3902;49.474;8.616;2023-10-19T11:10:28;18.10;99.90
7720;DHT22;3902;49.474;8.616;2023-10-19T11:13:02;18.10;99.90
7720;DHT22;3902;49.474;8.616;2023-10-19T11:15:27;18.10;99.90
7720;DHT22;3902;49.474;8.616;2023-10-19T11:17:53;18.00;99.90
7720;DHT22;3902;49.474;8.616;2023-10-19T11:20:23;18.00;99.90
7720;DHT22;3902;49.474;8.616;2023-10-19T11:22:51;18.00;99.90
7720;DHT22;3902;49.474;8.616;2023-10-19T11:25:23;18.00;99.90
7720;DHT22;3902;49.474;8.616;2023-10-19T11:27:49;18.00;99.90
7720;DHT22;3902;49.474;8.616;2023-10-19T11:30:26;18.00;99.90
7720;DHT22;3902;49.474;8.616;2023-10-19T11:32:52;18.00;99.90
7720;DHT22;3902;49.474;8.616;2023-10-19T11:35:26;18.00;99.90
7720;DHT22;3902;49.474;8.616;2023-10-19T11:37:54;18.00;99.90
7720;DHT22;3902;49.474;8.616;2023-10-19T11:40:21;17.90;99.90
7720;DHT22;3902;49.474;8.616;2023-10-19T11:42:48;17.90;99.90
7720;DHT22;3902;49.474;8.616;2023-10-19T11:45:13;17.90;99.90
7720;DHT22;3902;49.474;8.616;2023-10-19T11:47:39;17.90;99.90
7720;DHT22;3902;49.474;8.616;2023-10-19T11:50:05;17.90;99.90
7720;DHT22;3902;49.474;8.616;2023-10-19T11:52:31;17.90;99.90
7720;DHT22;3902;49.474;8.616;2023-10-19T11:54:57;17.80;99.90
7720;DHT22;3902;49.474;8.616;2023-10-19T11:57:24;17.80;99.90
7720;DHT22;3902;49.474;8.616;2023-10-19T11:59:50;17.80;99.90
7720;DHT22;3902;49.474;8.616;2023-10-19T12:02:20;17.80;99.90
7720;DHT22;3902;49.474;8.616;2023-10-19T12:04:46;17.80;99.90
7720;DHT22;3902;49.474;8.616;2023-10-19T12:07:12;17.80;99.90
7720;DHT22;3902;49.474;8.616;2023-10-19T12:09:38;17.80;99.90
7720;DHT22;3902;49.474;8.616;2023-10-19T12:12:09;17.80;99.90
7720;DHT22;3902;49.474;8.616;2023-10-19T12:14:36;17.80;99.90
7720;DHT22;3902;49.474;8.616;2023-10-19T12:17:02;17.80;99.90
7720;DHT22;3902;49.474;8.616;2023-10-19T12:19:29;17.80;99.90
7720;DHT22;3902;49.474;8.616;2023-10-19T12:21:55;17.80;99.90
7720;DHT22;3902;49.474;8.616;2023-10-19T12:24:21;17.70;99.90
7720;DHT22;3902;49.474;8.616;2023-10-19T12:26:47;17.70;99.90
7720;DHT22;3902;49.474;8.616;2023-10-19T12:29:12;17.70;99.90
7720;DHT22;3902;49.474;8.616;2023-10-19T12:31:40;17.60;99.90
7720;DHT22;3902;49.474;8.616;2023-10-19T12:34:06;17.60;99.90
7720;DHT22;3902;49.474;8.616;2023-10-19T12:36:33;17.60;99.90
7720;DHT22;3902;49.474;8.616;2023-10-19T12:39:00;17.50;99.90
7720;DHT22;3902;49.474;8.616;2023-10-19T12:41:25;17.50;99.90
7720;DHT22;3902;49.474;8.616;2023-10-19T12:43:52;17.40;99.90
7720;DHT22;3902;49.474;8.616;2023-10-19T12:46:22;17.40;99.90
7720;DHT22;3902;49.474;8.616;2023-10-19T12:48:50;17.40;99.90
7720;DHT22;3902;49.474;8.616;2023-10-19T12:51:16;17.50;99.90
7720;DHT22;3902;49.474;8.616;2023-10-19T12:53:48;17.50;99.90
7720;DHT22;3902;49.474;8.616;2023-10-19T12:56:14;17.40;99.90
7720;DHT22;3902;49.474;8.616;2023-10-19T12:58:39;17.40;99.90
7720;DHT22;3902;49.474;8.616;2023-10-19T13:01:06;17.40;99.90
7720;DHT22;3902;49.474;8.616;2023-10-19T13:03:31;17.40;99.90
7720;DHT22;3902;49.474;8.616;2023-10-19T13:05:58;17.40;99.90
7720;DHT22;3902;49.474;8.616;2023-10-19T13:08:23;17.40;99.90
7720;DHT22;3902;49.474;8.616;2023-10-19T13:10:52;17.50;99.90
7720;DHT22;3902;49.474;8.616;2023-10-19T13:13:18;17.50;99.90
7720;DHT22;3902;49.474;8.616;2023-10-19T13:15:45;17.50;99.90
7720;DHT22;3902;49.474;8.616;2023-10-19T13:18:12;17.50;99.90
7720;DHT22;3902;49.474;8.616;2023-10-19T13:20:47;17.50;99.90
7720;DHT22;3902;49.474;8.616;2023-10-19T13:23:14;17.50;99.90
7720;DHT22;3902;49.474;8.616;2023-10-19T13:25:47;17.50;99.90
7720;DHT22;3902;49.474;8.616;2023-10-19T13:28:20;17.40;99.90
7720;DHT22;3902;49.474;8.616;2023-10-19T13:30:51;17.40;99.90
7720;DHT22;3902;49.474;8.616;2023-10-19T13:33:19;17.40;99.90
7720;DHT22;3902;49.474;8.616;2023-10-19T13:35:46;17.40;99.90
7720;DHT22;3902;49.474;8.616;2023-10-19T13:38:15;17.40;99.90
7720;DHT22;3902;49.474;8.616;2023-10-19T13:40:41;17.40;99.90
7720;DHT22;3902;49.474;8.616;2023-10-19T13:43:08;17.40;99.90
7720;DHT22;3902;49.474;8.616;2023-10-19T13:45:36;17.40;99.90
7720;DHT22;3902;49.474;8.616;2023-10-19T13:48:06;17.40;99.90
7720;DHT22;3902;49.474;8.616;2023-10-19T13:50:32;17.40;99.90
7720;DHT22;3902;49.474;8.616;2023-10-19T13:52:59;17.40;99.90
7720;DHT22;3902;49.474;8.616;2023-10-19T13:55:26;17.40;99.90
7720;DHT22;3902;49.474;8.616;2023-10-19T13:57:52;17.40;99.90
7720;DHT22;3902;49.474;8.616;2023-10-19T14:00:19;17.40;99.90
7720;DHT22;3902;49.474;8.616;2023-10-19T14:03:00;17.40;99.90
7720;DHT22;3902;49.474;8.616;2023-10-19T14:05:27;17.50;99.90
7720;DHT22;3902;49.474;8.616;2023-10-19T14:07:53;17.40;99.90
7720;DHT22;3902;49.474;8.616;2023-10-19T14:10:19;17.40;99.90
7720;DHT22;3902;49.474;8.616;2023-10-19T14:12:46;17.40;99.90
7720;DHT22;3902;49.474;8.616;2023-10-19T14:15:19;17.40;99.90
7720;DHT22;3902;49.474;8.616;2023-10-19T14:17:48;17.30;99.90
7720;DHT22;3902;49.474;8.616;2023-10-19T14:20:14;17.30;99.90
7720;DHT22;3902;49.474;8.616;2023-10-19T14:22:41;17.30;99.90
7720;DHT22;3902;49.474;8.616;2023-10-19T14:25:08;17.20;99.90
7720;DHT22;3902;49.474;8.616;2023-10-19T14:27:41;17.30;99.90
7720;DHT22;3902;49.474;8.616;2023-10-19T14:30:12;17.30;99.90
7720;DHT22;3902;49.474;8.616;2023-10-19T14:32:45;17.30;99.90
7720;DHT22;3902;49.474;8.616;2023-10-19T14:35:16;17.30;99.90
7720;DHT22;3902;49.474;8.616;2023-10-19T14:37:43;17.30;99.90
7720;DHT22;3902;49.474;8.616;2023-10-19T14:40:11;17.30;99.90
7720;DHT22;3902;49.474;8.616;2023-10-19T14:42:38;17.30;99.90
7720;DHT22;3902;49.474;8.616;2023-10-19T14:45:06;17.30;99.90
7720;DHT22;3902;49.474;8.616;2023-10-19T14:47:35;17.30;99.90
7720;DHT22;3902;49.474;8.616;2023-10-19T14:50:01;17.30;99.90
7720;DHT22;3902;49.474;8.616;2023-10-19T14:52:27;17.30;99.90
7720;DHT22;3902;49.474;8.616;2023-10-19T14:54:52;17.30;99.90
7720;DHT22;3902;49.474;8.616;2023-10-19T14:57:18;17.30;99.90
7720;DHT22;3902;49.474;8.616;2023-10-19T14:59:43;17.30;99.90
7720;DHT22;3902;49.474;8.616;2023-10-19T15:02:09;17.30;99.90
7720;DHT22;3902;49.474;8.616;2023-10-19T15:04:38;17.30;99.90
7720;DHT22;3902;49.474;8.616;2023-10-19T15:07:04;17.30;99.90
7720;DHT22;3902;49.474;8.616;2023-10-19T15:09:29;17.30;99.90
7720;DHT22;3902;49.474;8.616;2023-10-19T15:11:55;17.30;99.90
7720;DHT22;3902;49.474;8.616;2023-10-19T15:14:21;17.30;99.90
7720;DHT22;3902;49.474;8.616;2023-10-19T15:16:46;17.40;99.90
7720;DHT22;3902;49.474;8.616;2023-10-19T15:19:12;17.40;99.90
7720;DHT22;3902;49.474;8.616;2023-10-19T15:21:40;17.40;99.90
7720;DHT22;3902;49.474;8.616;2023-10-19T15:24:07;17.50;99.90
7720;DHT22;3902;49.474;8.616;2023-10-19T15:26:33;17.50;99.90
7720;DHT22;3902;49.474;8.616;2023-10-19T15:28:58;17.60;99.90
7720;DHT22;3902;49.474;8.616;2023-10-19T15:31:24;17.60;99.90
7720;DHT22;3902;49.474;8.616;2023-10-19T15:33:50;17.60;99.90
7720;DHT22;3902;49.474;8.616;2023-10-19T15:36:16;17.60;99.90
7720;DHT22;3902;49.474;8.616;2023-10-19T15:38:41;17.60;99.90
7720;DHT22;3902;49.474;8.616;2023-10-19T15:41:07;17.70;99.90
7720;DHT22;3902;49.474;8.616;2023-10-19T15:43:33;17.60;99.90
7720;DHT22;3902;49.474;8.616;2023-10-19T15:45:59;17.60;99.90
7720;DHT22;3902;49.474;8.616;2023-10-19T15:48:29;17.60;99.90
7720;DHT22;3902;49.474;8.616;2023-10-19T15:50:56;17.60;99.90
7720;DHT22;3902;49.474;8.616;2023-10-19T15:53:22;17.60;99.90
7720;DHT22;3902;49.474;8.616;2023-10-19T15:55:48;17.60;99.90
7720;DHT22;3902;49.474;8.616;2023-10-19T15:58:13;17.50;99.90
7720;DHT22;3902;49.474;8.616;2023-10-19T16:00:39;17.50;99.90
7720;DHT22;3902;49.474;8.616;2023-10-19T16:03:04;17.50;99.90
7720;DHT22;3902;49.474;8.616;2023-10-19T16:05:31;17.40;99.90
7720;DHT22;3902;49.474;8.616;2023-10-19T16:07:57;17.40;99.90
7720;DHT22;3902;49.474;8.616;2023-10-19T16:10:22;17.40;99.90
7720;DHT22;3902;49.474;8.616;2023-10-19T16:12:48;17.30;99.90
7720;DHT22;3902;49.474;8.616;2023-10-19T16:15:13;17.30;99.90
7720;DHT22;3902;49.474;8.616;2023-10-19T16:17:39;17.30;99.90
7720;DHT22;3902;49.474;8.616;2023-10-19T16:20:06;17.20;99.90
7720;DHT22;3902;49.474;8.616;2023-10-19T16:22:32;17.20;99.90
7720;DHT22;3902;49.474;8.616;2023-10-19T16:24:57;17.20;99.90
7720;DHT22;3902;49.474;8.616;2023-10-19T16:27:23;17.20;99.90